createdAt,value
2022-08-17T00:01:16.850Z,15.04
2022-08-17T00:03:47.590Z,15.02
2022-08-17T00:06:16.869Z,14.99
2022-08-17T00:08:45.878Z,14.95
2022-08-17T00:11:15.230Z,14.90
2022-08-17T00:13:45.890Z,14.87
2022-08-17T00:16:15.570Z,14.82
2022-08-17T00:19:06.015Z,14.80
2022-08-17T00:22:10.617Z,14.78
2022-08-17T00:24:19.383Z,14.74
2022-08-17T00:26:46.322Z,14.71
2022-08-17T00:29:16.477Z,14.68
2022-08-17T00:31:46.784Z,14.63
2022-08-17T00:34:13.354Z,14.61
2022-08-17T00:36:41.273Z,14.59
2022-08-17T00:39:07.863Z,14.56
2022-08-17T00:41:34.710Z,14.53
2022-08-17T00:44:04.118Z,14.52
2022-08-17T00:46:32.756Z,14.50
2022-08-17T00:49:00.161Z,14.45
2022-08-17T00:51:33.219Z,14.41
2022-08-17T00:54:10.789Z,14.39
2022-08-17T00:56:41.671Z,14.38
2022-08-17T00:59:10.199Z,14.35
2022-08-17T01:01:37.905Z,14.32
2022-08-17T01:04:05.591Z,14.33
2022-08-17T01:06:32.924Z,14.28
2022-08-17T01:09:02.350Z,14.25
2022-08-17T01:11:31.092Z,14.23
2022-08-17T01:13:57.632Z,14.19
2022-08-17T01:16:26.636Z,14.19
2022-08-17T01:18:58.150Z,14.16
2022-08-17T01:21:35.718Z,14.16
2022-08-17T01:24:04.647Z,14.14
2022-08-17T01:26:32.482Z,14.15
2022-08-17T01:29:00.512Z,14.16
2022-08-17T01:31:30.854Z,14.15
2022-08-17T01:33:59.839Z,14.14
2022-08-17T01:36:28.463Z,14.12
2022-08-17T01:38:55.039Z,14.13
2022-08-17T01:41:24.279Z,14.08
2022-08-17T01:43:54.627Z,14.07
2022-08-17T01:46:24.573Z,14.06
2022-08-17T01:48:51.293Z,14.05
2022-08-17T01:51:18.261Z,14.04
2022-08-17T01:53:48.733Z,14.02
2022-08-17T01:56:18.132Z,13.98
2022-08-17T01:58:46.946Z,13.97
2022-08-17T02:01:14.546Z,13.93
2022-08-17T02:03:41.270Z,13.91
2022-08-17T02:06:27.159Z,13.90
2022-08-17T02:09:02.257Z,13.85
2022-08-17T02:11:30.932Z,13.83
2022-08-17T02:14:01.094Z,13.80
2022-08-17T02:16:36.954Z,13.77
2022-08-17T02:19:06.297Z,13.75
2022-08-17T02:21:32.910Z,13.72
2022-08-17T02:23:59.536Z,13.70
2022-08-17T02:26:26.763Z,13.67
2022-08-17T02:28:53.429Z,13.63
2022-08-17T02:31:21.433Z,13.59
2022-08-17T02:34:00.233Z,13.59
2022-08-17T02:36:33.019Z,13.56
2022-08-17T02:39:00.071Z,13.53
2022-08-17T02:41:26.606Z,13.50
2022-08-17T02:43:53.189Z,13.47
2022-08-17T02:46:21.116Z,13.48
2022-08-17T02:48:47.728Z,13.46
2022-08-17T02:51:14.294Z,13.45
2022-08-17T02:53:40.989Z,13.43
2022-08-17T02:56:07.641Z,13.41
2022-08-17T02:58:36.082Z,13.37
2022-08-17T03:01:04.277Z,13.37
2022-08-17T03:03:32.269Z,13.34
2022-08-17T03:05:58.885Z,13.35
2022-08-17T03:08:25.674Z,13.34
2022-08-17T03:10:52.551Z,13.32
2022-08-17T03:13:19.283Z,13.34
2022-08-17T03:15:47.061Z,13.33
2022-08-17T03:18:24.918Z,13.32
2022-08-17T03:20:54.039Z,13.29
2022-08-17T03:23:23.686Z,13.28
2022-08-17T03:25:53.147Z,13.24
2022-08-17T03:28:20.930Z,13.22
2022-08-17T03:30:47.693Z,13.18
2022-08-17T03:33:14.422Z,13.15
2022-08-17T03:35:41.102Z,13.12
2022-08-17T03:38:11.083Z,13.13
2022-08-17T03:40:56.569Z,13.14
2022-08-17T03:43:26.440Z,13.14
2022-08-17T03:45:52.950Z,13.16
2022-08-17T03:48:20.159Z,13.13
2022-08-17T03:50:46.719Z,13.11
2022-08-17T03:53:17.201Z,13.10
2022-08-17T03:55:43.788Z,13.05
2022-08-17T03:58:10.369Z,13.02
2022-08-17T04:00:39.706Z,13.00
2022-08-17T04:03:06.467Z,13.02
2022-08-17T04:05:35.611Z,13.04
2022-08-17T04:08:02.432Z,13.08
2022-08-17T04:10:34.676Z,13.09
2022-08-17T04:13:11.420Z,13.09
2022-08-17T04:15:37.990Z,13.10
2022-08-17T04:18:04.571Z,13.10
2022-08-17T04:20:31.247Z,13.13
2022-08-17T04:22:59.584Z,13.11
2022-08-17T04:25:26.340Z,13.10
2022-08-17T04:27:54.738Z,13.11
2022-08-17T04:30:21.654Z,13.15
2022-08-17T04:33:04.768Z,13.20
2022-08-17T04:35:36.263Z,13.26
2022-08-17T04:38:02.920Z,13.29
2022-08-17T04:40:29.522Z,13.35
2022-08-17T04:43:02.730Z,13.42
2022-08-17T04:45:32.188Z,13.48
2022-08-17T04:47:59.448Z,13.54
2022-08-17T04:50:26.185Z,13.62
2022-08-17T04:52:52.722Z,13.73
2022-08-17T04:55:19.331Z,13.79
2022-08-17T04:57:45.915Z,13.84
2022-08-17T05:00:14.611Z,13.91
2022-08-17T05:02:50.096Z,14.00
2022-08-17T05:05:18.622Z,14.05
2022-08-17T05:07:45.184Z,14.09
2022-08-17T05:10:11.843Z,14.16
2022-08-17T05:12:38.363Z,14.25
2022-08-17T05:15:10.395Z,14.31
2022-08-17T05:17:38.300Z,14.36
2022-08-17T05:20:05.575Z,14.39
2022-08-17T05:22:32.115Z,14.42
2022-08-17T05:24:58.651Z,14.44
2022-08-17T05:27:32.903Z,14.54
2022-08-17T05:30:02.130Z,14.62
2022-08-17T05:32:39.285Z,14.67
2022-08-17T05:35:08.911Z,14.73
2022-08-17T05:37:35.465Z,14.79
2022-08-17T05:40:02.098Z,14.84
2022-08-17T05:42:28.709Z,14.88
2022-08-17T05:44:57.366Z,14.95
2022-08-17T05:47:26.153Z,14.99
2022-08-17T05:49:53.747Z,15.05
2022-08-17T05:52:32.984Z,15.12
2022-08-17T05:55:13.687Z,15.19
2022-08-17T05:57:53.413Z,15.22
2022-08-17T06:00:26.441Z,15.27
2022-08-17T06:03:44.894Z,15.37
2022-08-17T06:06:25.284Z,15.51
2022-08-17T06:09:15.220Z,15.60
2022-08-17T06:11:47.623Z,15.71
2022-08-17T06:14:38.217Z,15.82
2022-08-17T06:17:10.856Z,15.97
2022-08-17T06:19:42.647Z,16.10
2022-08-17T06:22:13.028Z,16.29
2022-08-17T06:24:45.516Z,16.44
2022-08-17T06:27:21.725Z,16.58
2022-08-17T06:29:53.680Z,16.73
2022-08-17T06:32:20.587Z,16.91
2022-08-17T06:34:47.842Z,17.02
2022-08-17T06:37:37.574Z,17.19
2022-08-17T06:40:23.880Z,17.30
2022-08-17T06:43:05.889Z,17.46
2022-08-17T06:45:38.603Z,17.51
2022-08-17T06:48:12.766Z,17.57
2022-08-17T06:50:44.085Z,17.76
2022-08-17T06:53:19.621Z,17.93
2022-08-17T06:55:55.867Z,18.11
2022-08-17T06:58:24.247Z,18.18
2022-08-17T07:00:58.813Z,18.46
2022-08-17T07:03:33.655Z,18.63
2022-08-17T07:06:06.486Z,18.85
2022-08-17T07:08:44.540Z,19.01
2022-08-17T07:11:16.413Z,19.19
2022-08-17T07:13:51.589Z,19.32
2022-08-17T07:16:23.994Z,19.56
2022-08-17T07:18:52.765Z,19.67
2022-08-17T07:21:34.210Z,19.89
2022-08-17T07:24:29.176Z,20.22
2022-08-17T07:27:16.119Z,20.41
2022-08-17T07:29:48.421Z,20.48
2022-08-17T07:32:17.526Z,20.45
2022-08-17T07:35:10.862Z,20.70
2022-08-17T07:37:39.890Z,20.78
2022-08-17T07:40:20.181Z,20.92
2022-08-17T07:43:23.009Z,20.98
2022-08-17T07:46:02.470Z,21.08
2022-08-17T07:48:29.169Z,21.14
2022-08-17T07:50:55.742Z,21.22
2022-08-17T07:53:24.872Z,21.33
2022-08-17T07:55:52.768Z,21.46
2022-08-17T07:58:22.544Z,21.54
2022-08-17T08:01:04.610Z,21.80
2022-08-17T08:03:33.099Z,21.91
2022-08-17T08:06:01.998Z,22.12
2022-08-17T08:08:33.431Z,22.27
2022-08-17T08:11:07.882Z,22.52
2022-08-17T08:13:37.260Z,22.48
2022-08-17T08:16:20.706Z,22.56
2022-08-17T08:18:54.772Z,22.68
2022-08-17T08:21:31.724Z,22.72
2022-08-17T08:24:10.038Z,22.89
2022-08-17T08:26:43.621Z,23.07
2022-08-17T08:29:20.586Z,23.29
2022-08-17T08:31:56.808Z,23.61
2022-08-17T08:34:58.623Z,23.83
2022-08-17T08:37:34.511Z,24.25
2022-08-17T08:40:19.482Z,24.55
2022-08-17T08:42:57.390Z,24.94
2022-08-17T08:45:32.038Z,25.32
2022-08-17T08:48:57.033Z,25.70
2022-08-17T08:51:03.891Z,26.13
2022-08-17T08:53:40.983Z,26.52
2022-08-17T08:56:16.316Z,26.47
2022-08-17T08:58:51.183Z,26.74
2022-08-17T09:01:27.672Z,26.85
2022-08-17T09:04:25.933Z,27.04
2022-08-17T09:07:02.292Z,27.28
2022-08-17T09:09:42.593Z,27.27
2022-08-17T09:12:17.397Z,27.06
2022-08-17T09:14:54.135Z,26.87
2022-08-17T09:17:31.198Z,26.80
2022-08-17T09:20:02.206Z,26.81
2022-08-17T09:22:34.135Z,27.04
2022-08-17T09:25:08.937Z,27.23
2022-08-17T09:27:49.222Z,27.41
2022-08-17T09:30:16.220Z,27.44
2022-08-17T09:32:46.185Z,27.64
2022-08-17T09:35:17.402Z,27.79
2022-08-17T09:37:58.468Z,27.99
2022-08-17T09:40:30.879Z,28.12
2022-08-17T09:43:04.191Z,28.43
2022-08-17T09:45:35.700Z,28.69
2022-08-17T09:48:08.199Z,28.80
2022-08-17T09:50:55.238Z,29.14
2022-08-17T09:53:31.790Z,29.09
2022-08-17T09:56:22.015Z,29.28
2022-08-17T09:59:08.475Z,29.53
2022-08-17T10:01:39.414Z,30.02
2022-08-17T10:04:29.366Z,30.14
2022-08-17T10:07:03.502Z,30.36
2022-08-17T10:09:48.454Z,30.09
2022-08-17T10:12:29.952Z,29.69
2022-08-17T10:15:11.777Z,29.66
2022-08-17T10:17:46.182Z,29.73
2022-08-17T10:20:18.960Z,30.00
2022-08-17T10:22:54.856Z,30.02
2022-08-17T10:25:27.781Z,30.02
2022-08-17T10:28:06.536Z,29.34
2022-08-17T10:30:37.883Z,28.93
2022-08-17T10:33:12.624Z,28.70
2022-08-17T10:35:47.573Z,28.56
2022-08-17T10:38:38.847Z,28.31
2022-08-17T10:41:19.838Z,28.17
2022-08-17T10:44:36.976Z,28.00
2022-08-17T10:47:02.945Z,28.12
2022-08-17T10:49:32.067Z,28.28
2022-08-17T10:52:01.904Z,28.27
2022-08-17T10:54:40.683Z,28.23
2022-08-17T10:57:39.056Z,28.01
2022-08-17T11:00:10.497Z,28.05
2022-08-17T11:02:43.955Z,27.83
2022-08-17T11:05:23.312Z,27.82
2022-08-17T11:08:06.960Z,27.87
2022-08-17T11:10:52.270Z,27.83
2022-08-17T11:13:31.998Z,27.80
2022-08-17T11:16:15.026Z,27.83
2022-08-17T11:19:07.091Z,28.10
2022-08-17T11:22:01.585Z,28.17
2022-08-17T11:24:34.192Z,28.22
2022-08-17T11:27:07.943Z,27.82
2022-08-17T11:29:52.932Z,27.76
2022-08-17T11:32:36.743Z,27.91
2022-08-17T11:35:25.099Z,27.53
2022-08-17T11:38:06.950Z,27.43
2022-08-17T11:40:46.123Z,27.44
2022-08-17T11:43:30.864Z,27.25
2022-08-17T11:46:07.455Z,27.24
2022-08-17T11:48:43.079Z,27.31
2022-08-17T11:51:13.343Z,27.33
2022-08-17T11:54:31.131Z,27.24
2022-08-17T11:56:51.362Z,27.34
2022-08-17T12:00:07.003Z,27.42
2022-08-17T12:02:42.373Z,27.77
2022-08-17T12:05:36.008Z,28.17
2022-08-17T12:08:18.759Z,28.55
2022-08-17T12:10:58.178Z,28.67
2022-08-17T12:13:27.403Z,28.43
2022-08-17T12:16:01.517Z,28.25
2022-08-17T12:18:31.723Z,28.07
2022-08-17T12:21:19.335Z,27.83
2022-08-17T12:23:55.415Z,27.58
2022-08-17T12:26:25.646Z,27.47
2022-08-17T12:28:58.801Z,27.42
2022-08-17T12:31:28.676Z,27.42
2022-08-17T12:33:56.126Z,27.30
2022-08-17T12:36:25.326Z,27.33
2022-08-17T12:38:55.868Z,27.48
2022-08-17T12:41:34.560Z,27.95
2022-08-17T12:44:05.266Z,28.51
2022-08-17T12:46:34.378Z,29.19
2022-08-17T12:49:12.949Z,29.63
2022-08-17T12:51:43.444Z,30.25
2022-08-17T12:54:24.004Z,30.84
2022-08-17T12:56:50.634Z,31.39
2022-08-17T12:59:29.857Z,31.21
2022-08-17T13:01:57.628Z,30.70
2022-08-17T13:04:24.695Z,30.25
2022-08-17T13:07:00.146Z,29.93
2022-08-17T13:09:35.316Z,30.02
2022-08-17T13:12:07.678Z,30.11
2022-08-17T13:14:35.913Z,30.17
2022-08-17T13:17:03.338Z,30.24
2022-08-17T13:19:40.963Z,30.23
2022-08-17T13:22:12.202Z,30.34
2022-08-17T13:24:49.421Z,30.17
2022-08-17T13:27:20.997Z,30.30
2022-08-17T13:29:53.292Z,30.27
2022-08-17T13:32:22.392Z,30.18
2022-08-17T13:35:14.255Z,30.33
2022-08-17T13:37:37.948Z,30.59
2022-08-17T13:40:29.925Z,30.56
2022-08-17T13:42:57.831Z,30.71
2022-08-17T13:45:56.500Z,30.38
2022-08-17T13:48:26.451Z,30.09
2022-08-17T13:51:22.145Z,29.98
2022-08-17T13:53:56.535Z,30.06
2022-08-17T13:56:38.556Z,30.03
2022-08-17T13:59:08.710Z,30.04
2022-08-17T14:01:39.566Z,30.04
2022-08-17T14:04:08.249Z,30.03
2022-08-17T14:06:51.911Z,29.94
2022-08-17T14:09:25.337Z,29.68
2022-08-17T14:11:53.795Z,29.90
2022-08-17T14:14:21.208Z,30.57
2022-08-17T14:16:49.206Z,31.43
2022-08-17T14:19:15.783Z,31.84
2022-08-17T14:21:44.396Z,32.28
2022-08-17T14:24:18.275Z,32.90
2022-08-17T14:26:44.868Z,33.68
2022-08-17T14:29:14.977Z,33.92
2022-08-17T14:31:42.376Z,34.05
2022-08-17T14:34:16.403Z,33.92
2022-08-17T14:36:48.211Z,34.32
2022-08-17T14:39:16.648Z,34.27
2022-08-17T14:41:43.887Z,34.37
2022-08-17T14:44:11.057Z,34.86
2022-08-17T14:46:38.013Z,34.75
2022-08-17T14:49:04.593Z,34.80
2022-08-17T14:51:32.693Z,35.07
2022-08-17T14:53:59.310Z,35.14
2022-08-17T14:56:26.184Z,35.06
2022-08-17T14:58:52.852Z,35.41
2022-08-17T15:01:20.904Z,35.28
2022-08-17T15:03:47.552Z,34.34
2022-08-17T15:06:14.324Z,33.47
2022-08-17T15:08:44.335Z,32.71
2022-08-17T15:11:14.418Z,32.18
2022-08-17T15:13:53.007Z,31.47
2022-08-17T15:16:20.149Z,31.06
2022-08-17T15:18:46.753Z,31.23
2022-08-17T15:21:13.311Z,31.22
2022-08-17T15:23:39.897Z,31.27
2022-08-17T15:26:10.715Z,32.10
2022-08-17T15:28:37.325Z,32.93
2022-08-17T15:31:04.099Z,33.50
2022-08-17T15:33:30.693Z,33.02
2022-08-17T15:35:59.786Z,32.47
2022-08-17T15:38:26.777Z,32.28
2022-08-17T15:40:54.188Z,31.85
2022-08-17T15:43:27.597Z,31.44
2022-08-17T15:45:59.820Z,31.21
2022-08-17T15:48:27.629Z,31.46
2022-08-17T15:50:54.175Z,32.19
2022-08-17T15:53:20.757Z,32.88
2022-08-17T15:55:47.314Z,33.30
2022-08-17T15:58:13.825Z,33.12
2022-08-17T16:00:49.061Z,33.39
2022-08-17T16:04:01.451Z,33.49
2022-08-17T16:06:07.487Z,34.03
2022-08-17T16:08:37.464Z,34.23
2022-08-17T16:11:04.558Z,33.53
2022-08-17T16:13:31.617Z,31.96
2022-08-17T16:15:59.634Z,31.11
2022-08-17T16:18:27.978Z,30.38
2022-08-17T16:20:54.606Z,29.88
2022-08-17T16:23:21.159Z,29.52
2022-08-17T16:25:53.684Z,29.13
2022-08-17T16:28:21.478Z,29.19
2022-08-17T16:30:48.082Z,29.56
2022-08-17T16:33:16.020Z,29.61
2022-08-17T16:35:42.617Z,29.78
2022-08-17T16:38:09.264Z,30.45
2022-08-17T16:40:36.422Z,31.45
2022-08-17T16:43:04.634Z,32.21
2022-08-17T16:45:31.597Z,32.49
2022-08-17T16:47:58.726Z,32.91
2022-08-17T16:50:26.664Z,33.12
2022-08-17T16:53:02.931Z,33.42
2022-08-17T16:55:29.507Z,33.29
2022-08-17T16:57:56.092Z,33.31
2022-08-17T17:00:22.867Z,33.32
2022-08-17T17:02:49.604Z,32.74
2022-08-17T17:05:36.347Z,33.14
2022-08-17T17:08:07.963Z,33.48
2022-08-17T17:10:39.233Z,32.79
2022-08-17T17:13:12.027Z,32.37
2022-08-17T17:15:46.620Z,31.55
2022-08-17T17:18:13.972Z,31.19
2022-08-17T17:20:47.586Z,31.04
2022-08-17T17:23:26.502Z,30.41
2022-08-17T17:26:02.924Z,30.31
2022-08-17T17:28:37.502Z,29.36
2022-08-17T17:31:10.430Z,29.19
2022-08-17T17:33:42.513Z,29.10
2022-08-17T17:36:22.203Z,28.78
2022-08-17T17:38:52.712Z,28.74
2022-08-17T17:41:26.504Z,28.52
2022-08-17T17:44:01.682Z,28.35
2022-08-17T17:46:32.627Z,28.22
2022-08-17T17:48:59.944Z,28.09
2022-08-17T17:52:09.111Z,27.96
2022-08-17T17:54:36.609Z,27.78
2022-08-17T17:57:11.100Z,27.56
2022-08-17T17:59:48.072Z,27.38
2022-08-17T18:02:31.771Z,27.20
2022-08-17T18:05:08.552Z,27.00
2022-08-17T18:07:42.714Z,26.90
2022-08-17T18:10:29.619Z,26.78
2022-08-17T18:13:04.606Z,26.61
2022-08-17T18:15:36.772Z,26.49
2022-08-17T18:18:39.152Z,26.33
2022-08-17T18:21:10.080Z,26.16
2022-08-17T18:23:46.539Z,25.96
2022-08-17T18:26:13.153Z,25.75
2022-08-17T18:28:41.774Z,25.58
2022-08-17T18:31:12.568Z,25.36
2022-08-17T18:33:41.926Z,25.13
2022-08-17T18:36:08.778Z,24.90
2022-08-17T18:38:37.421Z,24.70
2022-08-17T18:41:17.817Z,24.45
2022-08-17T18:43:53.170Z,24.23
2022-08-17T18:46:29.196Z,24.00
2022-08-17T18:48:59.275Z,23.88
2022-08-17T18:51:40.451Z,23.72
2022-08-17T18:54:20.991Z,23.64
2022-08-17T18:56:54.476Z,23.54
2022-08-17T18:59:32.885Z,23.31
2022-08-17T19:02:11.637Z,23.12
2022-08-17T19:04:43.059Z,23.02
2022-08-17T19:07:29.973Z,22.88
2022-08-17T19:10:13.923Z,22.79
2022-08-17T19:12:46.782Z,22.66
2022-08-17T19:15:15.971Z,22.56
2022-08-17T19:17:48.046Z,22.49
2022-08-17T19:20:19.272Z,22.35
2022-08-17T19:22:56.318Z,22.21
2022-08-17T19:25:27.342Z,22.10
2022-08-17T19:28:01.602Z,21.93
2022-08-17T19:30:30.035Z,21.87
2022-08-17T19:32:56.851Z,21.74
2022-08-17T19:35:29.652Z,21.64
2022-08-17T19:38:03.468Z,21.56
2022-08-17T19:40:52.330Z,21.42
2022-08-17T19:43:28.472Z,21.29
2022-08-17T19:46:02.699Z,21.22
2022-08-17T19:48:42.591Z,21.10
2022-08-17T19:51:13.706Z,20.96
2022-08-17T19:54:04.815Z,20.85
2022-08-17T19:56:41.356Z,20.70
2022-08-17T19:59:16.101Z,20.55
2022-08-17T20:01:47.726Z,20.47
2022-08-17T20:04:21.587Z,20.43
2022-08-17T20:06:48.915Z,20.35
2022-08-17T20:09:20.941Z,20.30
2022-08-17T20:11:54.103Z,20.17
2022-08-17T20:14:25.683Z,20.09
2022-08-17T20:16:52.548Z,19.97
2022-08-17T20:19:29.078Z,19.84
2022-08-17T20:22:00.782Z,19.70
2022-08-17T20:24:34.836Z,19.61
2022-08-17T20:27:13.137Z,19.54
2022-08-17T20:30:04.507Z,19.48
2022-08-17T20:32:33.877Z,19.41
2022-08-17T20:35:08.446Z,19.37
2022-08-17T20:37:36.024Z,19.22
2022-08-17T20:40:19.105Z,19.14
2022-08-17T20:42:46.183Z,19.02
2022-08-17T20:45:52.564Z,19.01
2022-08-17T20:48:37.427Z,18.91
2022-08-17T20:51:22.323Z,18.86
2022-08-17T20:54:25.330Z,18.79
2022-08-17T20:56:54.929Z,18.66
2022-08-17T20:59:53.694Z,18.58
2022-08-17T21:02:23.707Z,18.51
2022-08-17T21:05:16.872Z,18.44
2022-08-17T21:07:52.953Z,18.35
2022-08-17T21:10:32.409Z,18.31
2022-08-17T21:13:04.186Z,18.27
2022-08-17T21:15:39.263Z,18.19
2022-08-17T21:18:15.244Z,18.16
2022-08-17T21:20:49.146Z,18.12
2022-08-17T21:23:39.834Z,18.03
2022-08-17T21:26:30.763Z,17.94
2022-08-17T21:29:30.290Z,17.89
2022-08-17T21:32:19.206Z,17.85
2022-08-17T21:35:27.760Z,17.77
2022-08-17T21:37:58.500Z,17.72
2022-08-17T21:40:27.769Z,17.69
2022-08-17T21:42:57.223Z,17.72
2022-08-17T21:45:28.876Z,17.71
2022-08-17T21:48:12.194Z,17.67
2022-08-17T21:50:42.258Z,17.63
2022-08-17T21:53:12.733Z,17.59
2022-08-17T21:55:39.492Z,17.54
2022-08-17T21:58:22.007Z,17.46
2022-08-17T22:01:09.661Z,17.38
2022-08-17T22:03:36.308Z,17.31
2022-08-17T22:09:03.436Z,17.19
2022-08-17T22:11:30.290Z,17.14
2022-08-17T22:14:05.452Z,17.14
2022-08-17T22:16:32.596Z,17.06
2022-08-17T22:18:59.442Z,17.06
2022-08-17T22:21:26.470Z,17.04
2022-08-17T22:24:03.235Z,17.00
2022-08-17T22:27:05.411Z,16.97
2022-08-17T22:29:47.255Z,16.91
2022-08-17T22:32:33.738Z,16.82
2022-08-17T22:35:32.596Z,16.73
2022-08-17T22:38:28.127Z,16.69
2022-08-17T22:41:12.424Z,16.63
2022-08-17T22:43:43.094Z,16.57
2022-08-17T22:46:11.856Z,16.56
2022-08-17T22:48:47.538Z,16.50
2022-08-17T22:51:18.645Z,16.45
2022-08-17T22:53:46.883Z,16.39
2022-08-17T22:56:18.479Z,16.38
2022-08-17T22:58:58.964Z,16.34
2022-08-17T23:01:29.433Z,16.29
2022-08-17T23:03:58.291Z,16.25
2022-08-17T23:06:25.090Z,16.22
2022-08-17T23:08:52.764Z,16.18
2022-08-17T23:11:23.335Z,16.15
2022-08-17T23:14:11.043Z,16.11
2022-08-17T23:16:38.839Z,16.04
2022-08-17T23:19:05.405Z,16.00
2022-08-17T23:21:32.107Z,15.99
2022-08-17T23:24:05.157Z,15.96
2022-08-17T23:26:34.166Z,15.92
2022-08-17T23:29:00.719Z,15.93
2022-08-17T23:31:27.279Z,15.84
2022-08-17T23:33:53.896Z,15.84
2022-08-17T23:36:20.467Z,15.80
2022-08-17T23:38:47.032Z,15.75
2022-08-17T23:41:16.768Z,15.75
2022-08-17T23:43:47.725Z,15.71
2022-08-17T23:46:14.369Z,15.68
2022-08-17T23:48:40.909Z,15.62
2022-08-17T23:51:11.631Z,15.59
2022-08-17T23:53:42.146Z,15.52
2022-08-17T23:56:10.250Z,15.45
2022-08-17T23:58:37.227Z,15.41
